createdAt,value
2022-10-22T00:00:19.262Z,96884.03
2022-10-22T00:02:46.406Z,96880.72
2022-10-22T00:05:13.640Z,96878.31
2022-10-22T00:07:41.135Z,96877.25
2022-10-22T00:10:09.465Z,96880.91
2022-10-22T00:12:36.658Z,96883.81
2022-10-22T00:15:06.283Z,96864.03
2022-10-22T00:17:33.599Z,96883.16
2022-10-22T00:20:00.675Z,96882.97
2022-10-22T00:22:27.883Z,96889.63
2022-10-22T00:24:55.029Z,96889.44
2022-10-22T00:27:22.181Z,96894.66
2022-10-22T00:29:49.267Z,96887.66
2022-10-22T00:32:17.592Z,96891.84
2022-10-22T00:34:45.394Z,96881.34
2022-10-22T00:37:12.495Z,96882.16
2022-10-22T00:39:39.593Z,96891.84
2022-10-22T00:42:06.596Z,96893.72
2022-10-22T00:45:02.009Z,96884.34
2022-10-22T00:47:34.799Z,96891.41
2022-10-22T00:52:36.635Z,96880.25
2022-10-22T00:55:04.740Z,96876.13
2022-10-22T00:57:32.747Z,96865.59
2022-10-22T01:00:00.283Z,96873.50
2022-10-22T01:02:27.817Z,96873.59
2022-10-22T01:04:56.819Z,96862.34
2022-10-22T01:07:26.265Z,96867.56
2022-10-22T01:10:05.152Z,96873.81
2022-10-22T01:12:44.051Z,96868.50
2022-10-22T01:15:22.197Z,96864.63
2022-10-22T01:17:57.964Z,96858.59
2022-10-22T01:20:39.584Z,96849.94
2022-10-22T01:23:25.624Z,96841.41
2022-10-22T01:25:58.696Z,96843.28
2022-10-22T01:28:53.012Z,96834.66
2022-10-22T01:31:23.741Z,96835.97
2022-10-22T01:33:54.857Z,96829.97
2022-10-22T01:36:22.881Z,96822.47
2022-10-22T01:38:51.767Z,96829.59
2022-10-22T01:41:19.815Z,96826.38
2022-10-22T01:43:46.858Z,96827.19
2022-10-22T01:46:14.465Z,96809.28
2022-10-22T01:48:59.861Z,96810.16
2022-10-22T01:51:50.289Z,96808.88
2022-10-22T01:54:27.918Z,96812.47
2022-10-22T01:57:08.643Z,96800.84
2022-10-22T01:59:49.645Z,96787.19
2022-10-22T02:02:27.756Z,96780.44
2022-10-22T02:05:01.018Z,96773.75
2022-10-22T02:07:33.337Z,96773.94
2022-10-22T02:10:02.715Z,96771.25
2022-10-22T02:12:32.751Z,96762.53
2022-10-22T02:15:02.573Z,96758.34
2022-10-22T02:17:33.831Z,96771.75
2022-10-22T02:20:08.916Z,96788.34
2022-10-22T02:22:36.378Z,96765.91
2022-10-22T02:25:04.072Z,96766.84
2022-10-22T02:27:36.266Z,96778.75
2022-10-22T02:30:07.034Z,96767.41
2022-10-22T02:32:39.407Z,96770.53
2022-10-22T02:35:10.567Z,96782.09
2022-10-22T02:37:39.098Z,96775.59
2022-10-22T02:40:07.370Z,96773.00
2022-10-22T02:42:36.578Z,96765.09
2022-10-22T02:45:04.097Z,96759.09
2022-10-22T02:47:31.081Z,96752.13
2022-10-22T02:49:58.095Z,96741.00
2022-10-22T02:52:27.012Z,96753.38
2022-10-22T02:54:53.984Z,96754.47
2022-10-22T02:59:53.119Z,96768.09
2022-10-22T03:02:20.939Z,96772.66
2022-10-22T03:04:48.143Z,96766.63
2022-10-22T03:07:15.229Z,96756.44
2022-10-22T03:09:43.676Z,96736.69
2022-10-22T03:12:10.810Z,96728.25
2022-10-22T03:14:38.042Z,96738.84
2022-10-22T03:17:05.335Z,96743.19
2022-10-22T03:19:32.809Z,96729.19
2022-10-22T03:22:02.949Z,96712.97
2022-10-22T03:24:34.909Z,96726.13
2022-10-22T03:27:04.457Z,96725.38
2022-10-22T03:29:33.406Z,96739.13
2022-10-22T03:32:00.507Z,96735.56
2022-10-22T03:34:27.829Z,96729.47
2022-10-22T03:36:56.741Z,96729.56
2022-10-22T03:39:24.422Z,96726.13
2022-10-22T03:41:52.787Z,96738.16
2022-10-22T03:44:22.565Z,96728.66
2022-10-22T03:46:49.662Z,96715.75
2022-10-22T03:49:16.966Z,96715.19
2022-10-22T03:51:44.867Z,96726.44
2022-10-22T03:54:11.839Z,96729.94
2022-10-22T03:56:38.881Z,96738.66
2022-10-22T03:59:05.835Z,96726.72
2022-10-22T04:01:34.663Z,96739.03
2022-10-22T04:04:02.025Z,96751.91
2022-10-22T04:06:30.309Z,96755.56
2022-10-22T04:08:57.530Z,96752.09
2022-10-22T04:11:24.887Z,96757.19
2022-10-22T04:13:52.082Z,96748.69
2022-10-22T04:16:21.454Z,96743.59
2022-10-22T04:18:51.429Z,96750.44
2022-10-22T04:21:19.927Z,96755.94
2022-10-22T04:23:47.941Z,96755.16
2022-10-22T04:26:16.356Z,96751.84
2022-10-22T04:28:43.930Z,96751.94
2022-10-22T04:31:13.256Z,96750.16
2022-10-22T04:33:41.259Z,96744.16
2022-10-22T04:36:12.752Z,96749.34
2022-10-22T04:38:39.946Z,96736.09
2022-10-22T04:41:11.958Z,96740.03
2022-10-22T04:43:39.584Z,96762.84
2022-10-22T04:46:07.653Z,96755.50
2022-10-22T04:48:34.956Z,96762.94
2022-10-22T04:51:01.963Z,96759.03
2022-10-22T04:53:30.771Z,96758.28
2022-10-22T04:56:08.478Z,96749.97
2022-10-22T04:58:36.017Z,96761.06
2022-10-22T05:01:11.300Z,96752.38
2022-10-22T05:03:38.841Z,96747.81
2022-10-22T05:06:07.348Z,96743.47
2022-10-22T05:08:36.677Z,96729.84
2022-10-22T05:11:11.819Z,96723.75
2022-10-22T05:13:39.657Z,96739.31
2022-10-22T05:16:07.401Z,96725.03
2022-10-22T05:18:36.688Z,96729.31
2022-10-22T05:21:05.460Z,96719.03
2022-10-22T05:23:33.340Z,96722.44
2022-10-22T05:26:05.394Z,96719.66
2022-10-22T05:28:33.692Z,96722.25
2022-10-22T05:31:02.898Z,96717.16
2022-10-22T05:33:32.985Z,96721.69
2022-10-22T05:36:01.128Z,96733.84
2022-10-22T05:38:28.974Z,96729.66
2022-10-22T05:41:06.757Z,96721.97
2022-10-22T05:43:35.242Z,96745.97
2022-10-22T05:46:05.384Z,96738.47
2022-10-22T05:51:07.084Z,96747.09
2022-10-22T05:53:37.762Z,96746.16
2022-10-22T05:56:09.776Z,96747.00
2022-10-22T05:58:37.602Z,96753.75
2022-10-22T06:01:06.039Z,96745.97
2022-10-22T06:03:34.080Z,96764.22
2022-10-22T06:06:04.387Z,96761.53
2022-10-22T06:08:31.899Z,96764.88
2022-10-22T06:11:00.280Z,96768.84
2022-10-22T06:13:29.001Z,96761.34
2022-10-22T06:15:56.987Z,96762.19
2022-10-22T06:18:24.839Z,96775.34
2022-10-22T06:20:52.341Z,96784.97
2022-10-22T06:23:19.908Z,96784.88
2022-10-22T06:25:56.661Z,96773.50
2022-10-22T06:31:00.585Z,96785.47
2022-10-22T06:33:29.141Z,96780.72
2022-10-22T06:36:07.396Z,96772.69
2022-10-22T06:38:35.800Z,96779.09
2022-10-22T06:41:05.146Z,96786.31
2022-10-22T06:43:32.320Z,96791.03
2022-10-22T06:46:03.720Z,96801.06
2022-10-22T06:48:31.218Z,96799.00
2022-10-22T06:51:02.287Z,96811.78
2022-10-22T06:53:30.107Z,96804.63
2022-10-22T06:55:57.958Z,96804.25
2022-10-22T06:58:25.778Z,96810.03
2022-10-22T07:01:03.912Z,96807.19
2022-10-22T07:03:32.022Z,96811.91
2022-10-22T07:06:03.450Z,96813.94
2022-10-22T07:08:31.796Z,96819.59
2022-10-22T07:11:07.700Z,96814.94
2022-10-22T07:13:35.829Z,96817.69
2022-10-22T07:16:04.923Z,96801.25
2022-10-22T07:18:32.506Z,96804.41
2022-10-22T07:21:00.040Z,96809.09
2022-10-22T07:23:27.651Z,96816.50
2022-10-22T07:25:57.787Z,96829.97
2022-10-22T07:28:25.801Z,96833.81
2022-10-22T07:30:53.951Z,96831.09
2022-10-22T07:33:22.551Z,96825.72
2022-10-22T07:35:50.556Z,96828.00
2022-10-22T07:38:17.780Z,96822.72
2022-10-22T07:40:45.645Z,96831.88
2022-10-22T07:43:13.219Z,96832.50
2022-10-22T07:45:40.359Z,96844.41
2022-10-22T07:48:08.198Z,96833.69
2022-10-22T07:50:37.932Z,96848.78
2022-10-22T07:53:05.291Z,96839.09
2022-10-22T07:55:34.601Z,96849.22
2022-10-22T07:58:03.716Z,96875.66
2022-10-22T08:00:31.092Z,96877.03
2022-10-22T08:02:58.416Z,96887.44
2022-10-22T08:05:25.660Z,96896.00
2022-10-22T08:07:54.411Z,96913.00
2022-10-22T08:10:21.681Z,96918.91
2022-10-22T08:12:49.003Z,96926.63
2022-10-22T08:15:16.678Z,96942.16
2022-10-22T08:17:44.430Z,96939.53
2022-10-22T08:20:12.702Z,96955.50
2022-10-22T08:22:40.037Z,96936.13
2022-10-22T08:25:10.560Z,96949.75
2022-10-22T08:27:38.592Z,96956.25
2022-10-22T08:30:07.252Z,96947.09
2022-10-22T08:32:34.719Z,96950.53
2022-10-22T08:35:01.938Z,96959.50
2022-10-22T08:37:29.779Z,96947.41
2022-10-22T08:39:57.316Z,96954.09
2022-10-22T08:42:54.393Z,96952.09
2022-10-22T08:45:25.014Z,96951.78
2022-10-22T08:48:10.216Z,96951.47
2022-10-22T08:50:40.877Z,96948.56
2022-10-22T08:53:14.599Z,96950.75
2022-10-22T08:55:42.496Z,96951.34
2022-10-22T08:58:20.624Z,96959.81
2022-10-22T09:00:56.515Z,96972.66
2022-10-22T09:03:35.869Z,96959.63
2022-10-22T09:06:09.760Z,96956.69
2022-10-22T09:08:38.646Z,96955.84
2022-10-22T09:11:14.339Z,96960.63
2022-10-22T09:13:45.479Z,96956.78
2022-10-22T09:16:18.426Z,96965.91
2022-10-22T09:18:59.722Z,96970.91
2022-10-22T09:21:34.278Z,96980.22
2022-10-22T09:24:10.221Z,96975.81
2022-10-22T09:26:40.533Z,96988.75
2022-10-22T09:29:17.872Z,96983.22
2022-10-22T09:31:45.510Z,96973.31
2022-10-22T09:34:15.928Z,96966.91
2022-10-22T09:36:43.373Z,96971.81
2022-10-22T09:39:24.769Z,96974.94
2022-10-22T09:41:52.396Z,96998.72
2022-10-22T09:44:22.276Z,96988.16
2022-10-22T09:46:50.339Z,96966.25
2022-10-22T09:49:19.788Z,96980.53
2022-10-22T09:51:53.465Z,96973.13
2022-10-22T09:54:23.857Z,96967.44
2022-10-22T09:56:55.661Z,96971.63
2022-10-22T09:59:32.031Z,96984.34
2022-10-22T10:02:20.019Z,96991.72
2022-10-22T10:04:56.176Z,96994.22
2022-10-22T10:07:30.128Z,96994.94
2022-10-22T10:12:59.333Z,96978.81
2022-10-22T10:15:34.055Z,96971.72
2022-10-22T10:18:10.692Z,96972.56
2022-10-22T10:20:47.233Z,96972.09
2022-10-22T10:23:25.463Z,96963.00
2022-10-22T10:26:01.827Z,96969.88
2022-10-22T10:28:43.079Z,96984.25
2022-10-22T10:31:21.478Z,96981.53
2022-10-22T10:34:02.741Z,96990.09
2022-10-22T10:36:37.296Z,96995.94
2022-10-22T10:39:10.887Z,96997.47
2022-10-22T10:41:49.678Z,97003.31
2022-10-22T10:44:36.237Z,97008.22
2022-10-22T10:47:19.230Z,97006.91
2022-10-22T10:49:47.707Z,97006.91
2022-10-22T10:52:23.491Z,97012.72
2022-10-22T10:55:05.731Z,97022.94
2022-10-22T10:57:45.807Z,97027.13
2022-10-22T11:00:17.471Z,97019.88
2022-10-22T11:03:21.790Z,97011.00
2022-10-22T11:05:53.717Z,97010.75
2022-10-22T11:08:25.152Z,97017.53
2022-10-22T11:10:55.560Z,97032.88
2022-10-22T11:13:31.225Z,97026.69
2022-10-22T11:16:01.770Z,97022.09
2022-10-22T11:18:37.929Z,97029.47
2022-10-22T11:21:16.016Z,97011.03
2022-10-22T11:23:48.653Z,97016.03
2022-10-22T11:26:26.084Z,97015.94
2022-10-22T11:28:55.195Z,97008.69
2022-10-22T11:31:24.389Z,97019.50
2022-10-22T11:34:05.159Z,97012.38
2022-10-22T11:36:43.736Z,97011.22
2022-10-22T11:39:41.016Z,97013.00
2022-10-22T11:42:12.979Z,97013.81
2022-10-22T11:44:50.093Z,97010.38
2022-10-22T11:47:23.981Z,97014.78
2022-10-22T11:50:03.037Z,97023.34
2022-10-22T11:52:42.059Z,97030.25
2022-10-22T11:55:33.167Z,97020.72
2022-10-22T11:58:02.426Z,97013.34
2022-10-22T12:00:46.585Z,97020.38
2022-10-22T12:03:18.646Z,97021.94
2022-10-22T12:06:03.722Z,97020.25
2022-10-22T12:08:33.549Z,97013.13
2022-10-22T12:11:22.443Z,97011.34
2022-10-22T12:14:12.275Z,97025.72
2022-10-22T12:16:55.861Z,97025.03
2022-10-22T12:19:30.760Z,97024.19
2022-10-22T12:22:12.025Z,97027.53
2022-10-22T12:24:42.543Z,97028.69
2022-10-22T12:27:22.370Z,97038.22
2022-10-22T12:29:54.910Z,97035.59
2022-10-22T12:32:22.246Z,97037.16
2022-10-22T12:34:51.566Z,97046.88
2022-10-22T12:37:20.848Z,97042.41
2022-10-22T12:39:48.734Z,97045.84
2022-10-22T12:42:18.542Z,97050.13
2022-10-22T12:44:45.951Z,97057.84
2022-10-22T12:47:17.192Z,97050.00
2022-10-22T12:49:47.853Z,97053.34
2022-10-22T12:52:18.105Z,97058.69
2022-10-22T12:54:48.164Z,97063.22
2022-10-22T12:57:18.183Z,97048.34
2022-10-22T12:59:49.887Z,97055.94
2022-10-22T13:02:21.366Z,97052.25
2022-10-22T13:05:22.974Z,97050.25
2022-10-22T13:07:52.505Z,97050.25
2022-10-22T13:10:26.515Z,97051.88
2022-10-22T13:12:57.133Z,97049.03
2022-10-22T13:15:37.786Z,97043.91
2022-10-22T13:18:15.553Z,97047.38
2022-10-22T13:20:55.545Z,97046.41
2022-10-22T13:23:25.279Z,97047.28
2022-10-22T13:26:04.374Z,97053.56
2022-10-22T13:28:33.187Z,97061.28
2022-10-22T13:31:02.562Z,97052.84
2022-10-22T13:33:33.924Z,97060.81
2022-10-22T13:36:01.830Z,97059.16
2022-10-22T13:38:29.951Z,97057.47
2022-10-22T13:40:57.786Z,97064.50
2022-10-22T13:43:27.028Z,97052.25
2022-10-22T13:45:58.214Z,97055.81
2022-10-22T13:48:29.040Z,97066.88
2022-10-22T13:50:56.271Z,97066.75
2022-10-22T13:53:26.273Z,97065.94
2022-10-22T13:55:54.704Z,97077.00
2022-10-22T13:58:24.291Z,97068.69
2022-10-22T14:00:55.360Z,97079.03
2022-10-22T14:03:28.850Z,97076.88
2022-10-22T14:05:56.662Z,97082.09
2022-10-22T14:08:25.461Z,97091.97
2022-10-22T14:10:53.037Z,97099.09
2022-10-22T14:13:21.541Z,97102.06
2022-10-22T14:15:52.175Z,97104.78
2022-10-22T14:18:24.525Z,97110.38
2022-10-22T14:20:54.542Z,97113.94
2022-10-22T14:23:23.811Z,97119.28
2022-10-22T14:25:53.194Z,97118.44
2022-10-22T14:28:20.751Z,97125.34
2022-10-22T14:30:48.164Z,97125.34
2022-10-22T14:33:19.180Z,97128.91
2022-10-22T14:35:48.969Z,97137.59
2022-10-22T14:38:18.088Z,97131.63
2022-10-22T14:40:45.945Z,97117.00
2022-10-22T14:43:19.039Z,97113.22
2022-10-22T14:45:46.861Z,97108.72
2022-10-22T14:48:14.133Z,97111.34
2022-10-22T14:50:41.185Z,97127.84
2022-10-22T14:53:10.821Z,97146.28
2022-10-22T14:55:38.225Z,97143.06
2022-10-22T14:58:05.596Z,97142.94
2022-10-22T15:00:33.199Z,97149.81
2022-10-22T15:03:03.402Z,97136.88
2022-10-22T15:05:32.149Z,97128.09
2022-10-22T15:07:59.570Z,97145.56
2022-10-22T15:10:29.348Z,97143.88
2022-10-22T15:12:56.956Z,97153.59
2022-10-22T15:15:25.594Z,97161.69
2022-10-22T15:17:56.357Z,97161.91
2022-10-22T15:20:23.565Z,97156.56
2022-10-22T15:22:51.097Z,97138.16
2022-10-22T15:25:18.887Z,97146.00
2022-10-22T15:27:50.374Z,97164.19
2022-10-22T15:30:19.434Z,97148.72
2022-10-22T15:32:47.232Z,97154.06
2022-10-22T15:35:15.387Z,97134.09
2022-10-22T15:37:43.109Z,97129.56
2022-10-22T15:40:11.567Z,97132.28
2022-10-22T15:42:39.275Z,97131.47
2022-10-22T15:45:10.119Z,97125.28
2022-10-22T15:47:37.463Z,97128.63
2022-10-22T15:50:05.087Z,97117.94
2022-10-22T15:52:32.633Z,97125.78
2022-10-22T15:54:59.762Z,97137.91
2022-10-22T15:57:27.915Z,97151.09
2022-10-22T15:59:55.364Z,97159.06
2022-10-22T16:02:27.887Z,97171.19
2022-10-22T16:04:54.921Z,97179.03
2022-10-22T16:07:24.006Z,97184.13
2022-10-22T16:09:56.343Z,97192.09
2022-10-22T16:12:23.650Z,97184.25
2022-10-22T16:14:51.818Z,97194.94
2022-10-22T16:17:19.967Z,97196.72
2022-10-22T16:19:49.846Z,97208.88
2022-10-22T16:22:18.219Z,97210.50
2022-10-22T16:24:45.737Z,97217.44
2022-10-22T16:27:13.432Z,97224.66
2022-10-22T16:29:42.048Z,97225.81
2022-10-22T16:32:09.791Z,97234.13
2022-10-22T16:34:38.492Z,97240.38
2022-10-22T16:37:08.351Z,97236.94
2022-10-22T16:39:35.835Z,97250.03
2022-10-22T16:42:02.785Z,97251.81
2022-10-22T16:44:30.709Z,97247.53
2022-10-22T16:46:58.156Z,97247.53
2022-10-22T16:49:25.507Z,97252.03
2022-10-22T16:51:53.999Z,97240.94
2022-10-22T16:54:23.082Z,97241.91
2022-10-22T16:56:50.479Z,97257.91
2022-10-22T16:59:19.251Z,97255.53
2022-10-22T17:01:47.783Z,97261.09
2022-10-22T17:04:16.664Z,97262.13
2022-10-22T17:06:45.106Z,97266.84
2022-10-22T17:09:13.295Z,97263.84
2022-10-22T17:11:44.953Z,97272.81
2022-10-22T17:14:14.729Z,97274.06
2022-10-22T17:16:43.078Z,97270.03
2022-10-22T17:19:16.172Z,97259.03
2022-10-22T17:21:45.062Z,97253.41
2022-10-22T17:24:13.143Z,97255.84
2022-10-22T17:26:46.109Z,97257.09
2022-10-22T17:29:16.109Z,97257.41
2022-10-22T17:31:45.176Z,97259.59
2022-10-22T17:34:18.336Z,97269.50
2022-10-22T17:36:47.007Z,97257.81
2022-10-22T17:39:18.590Z,97272.94
2022-10-22T17:41:51.808Z,97275.75
2022-10-22T17:44:20.131Z,97270.78
2022-10-22T17:46:51.398Z,97272.00
2022-10-22T17:49:21.928Z,97280.09
2022-10-22T17:51:51.130Z,97285.72
2022-10-22T17:54:20.075Z,97281.84
2022-10-22T17:56:50.452Z,97283.41
2022-10-22T17:59:19.023Z,97293.28
2022-10-22T18:01:46.780Z,97292.03
2022-10-22T18:04:17.962Z,97300.16
2022-10-22T18:06:46.405Z,97309.00
2022-10-22T18:09:18.478Z,97308.66
2022-10-22T18:11:51.376Z,97306.53
2022-10-22T18:14:22.344Z,97305.06
2022-10-22T18:16:50.562Z,97301.19
2022-10-22T18:19:19.945Z,97305.09
2022-10-22T18:21:48.501Z,97305.47
2022-10-22T18:24:19.242Z,97310.88
2022-10-22T18:26:49.894Z,97306.78
2022-10-22T18:29:19.216Z,97317.59
2022-10-22T18:31:47.542Z,97307.53
2022-10-22T18:34:17.627Z,97315.47
2022-10-22T18:36:48.852Z,97321.44
2022-10-22T18:39:17.742Z,97325.88
2022-10-22T18:41:45.452Z,97327.75
2022-10-22T18:44:16.039Z,97322.53
2022-10-22T18:46:44.526Z,97328.66
2022-10-22T18:49:19.391Z,97330.63
2022-10-22T18:51:48.181Z,97334.44
2022-10-22T18:54:24.738Z,97338.19
2022-10-22T18:56:53.569Z,97336.59
2022-10-22T18:59:26.136Z,97334.25
2022-10-22T19:01:55.241Z,97341.34
2022-10-22T19:04:22.981Z,97333.81
2022-10-22T19:06:51.189Z,97350.72
2022-10-22T19:09:18.750Z,97343.34
2022-10-22T19:11:46.869Z,97352.84
2022-10-22T19:14:14.843Z,97350.53
2022-10-22T19:16:43.392Z,97348.75
2022-10-22T19:19:18.900Z,97348.75
2022-10-22T19:21:46.854Z,97353.38
2022-10-22T19:24:20.537Z,97358.84
2022-10-22T19:26:49.567Z,97358.19
2022-10-22T19:29:19.939Z,97360.13
2022-10-22T19:31:49.992Z,97363.94
2022-10-22T19:34:19.113Z,97379.72
2022-10-22T19:36:47.250Z,97378.13
2022-10-22T19:39:16.272Z,97363.59
2022-10-22T19:41:44.527Z,97371.59
2022-10-22T19:44:13.769Z,97381.25
2022-10-22T19:46:42.493Z,97372.78
2022-10-22T19:49:12.894Z,97384.28
2022-10-22T19:51:40.637Z,97392.19
2022-10-22T19:54:12.716Z,97381.03
2022-10-22T19:56:41.848Z,97376.91
2022-10-22T19:59:09.981Z,97389.34
2022-10-22T20:01:41.407Z,97383.91
2022-10-22T20:04:14.106Z,97386.78
2022-10-22T20:06:41.919Z,97392.97
2022-10-22T20:09:09.379Z,97388.84
2022-10-22T20:11:37.406Z,97399.34
2022-10-22T20:14:04.958Z,97398.75
2022-10-22T20:16:34.038Z,97395.75
2022-10-22T20:19:03.907Z,97394.16
2022-10-22T20:21:34.714Z,97394.41
2022-10-22T20:24:02.478Z,97388.63
2022-10-22T20:26:30.921Z,97398.50
2022-10-22T20:28:59.106Z,97401.34
2022-10-22T20:31:28.816Z,97402.34
2022-10-22T20:33:57.911Z,97409.22
2022-10-22T20:36:26.730Z,97411.16
2022-10-22T20:39:00.201Z,97414.81
2022-10-22T20:41:27.865Z,97421.09
2022-10-22T20:43:56.205Z,97427.13
2022-10-22T20:46:25.540Z,97430.25
2022-10-22T20:48:55.027Z,97430.00
2022-10-22T20:51:22.531Z,97427.16
2022-10-22T20:53:51.297Z,97436.41
2022-10-22T20:56:20.628Z,97432.81
2022-10-22T20:58:49.094Z,97448.22
2022-10-22T21:01:19.435Z,97448.91
2022-10-22T21:03:46.532Z,97442.63
2022-10-22T21:06:13.949Z,97447.59
2022-10-22T21:08:41.209Z,97453.53
2022-10-22T21:11:08.311Z,97451.59
2022-10-22T21:13:37.634Z,97449.59
2022-10-22T21:16:09.440Z,97455.53
2022-10-22T21:18:36.936Z,97455.47
2022-10-22T21:21:04.785Z,97443.22
2022-10-22T21:23:32.007Z,97441.31
2022-10-22T21:25:58.868Z,97448.75
2022-10-22T21:28:26.130Z,97452.28
2022-10-22T21:30:55.006Z,97446.09
2022-10-22T21:33:22.134Z,97440.72
2022-10-22T21:35:51.203Z,97439.84
2022-10-22T21:38:18.275Z,97435.69
2022-10-22T21:40:45.219Z,97449.75
2022-10-22T21:43:12.632Z,97446.06
2022-10-22T21:45:40.039Z,97456.72
2022-10-22T21:48:09.118Z,97459.47
2022-10-22T21:50:39.500Z,97459.47
2022-10-22T21:53:06.726Z,97463.09
2022-10-22T21:55:38.274Z,97462.31
2022-10-22T21:58:05.737Z,97473.41
2022-10-22T22:00:33.127Z,97491.38
2022-10-22T22:03:00.342Z,97489.50
2022-10-22T22:05:29.648Z,97474.56
2022-10-22T22:07:57.002Z,97476.09
2022-10-22T22:10:24.460Z,97466.44
2022-10-22T22:12:51.576Z,97468.06
2022-10-22T22:15:19.881Z,97473.09
2022-10-22T22:17:47.261Z,97473.16
2022-10-22T22:20:14.648Z,97463.00
2022-10-22T22:22:44.338Z,97456.28
2022-10-22T22:25:11.850Z,97458.41
2022-10-22T22:27:39.344Z,97448.06
2022-10-22T22:30:08.489Z,97447.91
2022-10-22T22:32:35.910Z,97448.91
2022-10-22T22:35:02.956Z,97463.50
2022-10-22T22:37:30.383Z,97459.06
2022-10-22T22:40:00.400Z,97453.84
2022-10-22T22:42:27.488Z,97448.75
2022-10-22T22:44:54.727Z,97452.38
2022-10-22T22:47:21.794Z,97443.88
2022-10-22T22:49:49.612Z,97450.69
2022-10-22T22:52:17.110Z,97444.66
2022-10-22T22:54:44.027Z,97451.50
2022-10-22T22:57:13.767Z,97451.59
2022-10-22T22:59:41.583Z,97440.28
2022-10-22T23:02:08.807Z,97453.13
2022-10-22T23:04:37.354Z,97461.66
2022-10-22T23:07:04.804Z,97455.47
2022-10-22T23:09:31.982Z,97447.66
2022-10-22T23:11:59.213Z,97442.38
2022-10-22T23:14:29.303Z,97456.13
2022-10-22T23:16:56.525Z,97442.13
2022-10-22T23:19:24.312Z,97440.34
2022-10-22T23:21:53.921Z,97438.78
2022-10-22T23:24:24.053Z,97429.03
2022-10-22T23:26:53.614Z,97439.34
2022-10-22T23:29:23.683Z,97428.13
2022-10-22T23:31:53.905Z,97438.63
2022-10-22T23:34:24.143Z,97433.66
2022-10-22T23:36:52.367Z,97431.81
2022-10-22T23:39:23.219Z,97419.72
2022-10-22T23:41:50.638Z,97425.00
2022-10-22T23:44:17.567Z,97423.59
2022-10-22T23:46:44.817Z,97421.00
2022-10-22T23:49:14.135Z,97424.44
2022-10-22T23:51:41.846Z,97432.22
2022-10-22T23:54:12.333Z,97433.56
2022-10-22T23:56:39.969Z,97456.13
2022-10-22T23:59:08.377Z,97457.19
